createdAt,value
2023-04-16T00:02:19.964Z,13.32
2023-04-16T00:04:49.227Z,13.70
2023-04-16T00:07:18.112Z,17.05
2023-04-16T00:09:45.805Z,14.40
2023-04-16T00:12:15.033Z,12.88
2023-04-16T00:14:42.885Z,14.60
2023-04-16T00:17:10.456Z,12.75
2023-04-16T00:19:38.249Z,16.15
2023-04-16T00:22:22.760Z,16.75
2023-04-16T00:27:59.696Z,14.70
2023-04-16T00:30:34.861Z,16.92
2023-04-16T00:33:06.281Z,16.83
2023-04-16T00:35:53.785Z,13.52
2023-04-16T00:39:09.138Z,15.07
2023-04-16T00:42:02.505Z,15.90
2023-04-16T22:22:02.511Z,7.82
2023-04-16T22:27:21.652Z,4.10
2023-04-16T22:33:38.470Z,6.38
2023-04-16T22:36:26.195Z,7.22
2023-04-16T22:39:04.098Z,12.95
2023-04-16T22:42:00.635Z,6.93
2023-04-16T22:47:50.704Z,4.72
2023-04-16T22:50:36.927Z,5.47
2023-04-16T22:59:54.926Z,5.78
2023-04-16T23:02:59.902Z,3.25
2023-04-16T23:06:04.620Z,6.63
2023-04-16T23:09:01.289Z,8.27
2023-04-16T23:11:38.020Z,4.80
2023-04-16T23:14:50.638Z,5.00
2023-04-16T23:17:40.920Z,6.40
2023-04-16T23:21:03.844Z,8.52
2023-04-16T23:24:08.044Z,5.40
2023-04-16T23:27:17.105Z,6.35
2023-04-16T23:30:00.134Z,8.38
2023-04-16T23:32:51.050Z,6.55
2023-04-16T23:35:59.175Z,7.07
2023-04-16T23:38:43.514Z,7.22
2023-04-16T23:41:23.862Z,6.32
2023-04-16T23:44:16.250Z,4.20
2023-04-16T23:47:17.202Z,7.10
2023-04-16T23:53:35.803Z,6.13
2023-04-16T23:56:41.172Z,7.43
